sensor_id;sensor_type;location;lat;lon;timestamp;P1;durP1;ratioP1;P2;durP2;ratioP2
6928;SDS011;3504;52.616;13.238;2023-02-03T00:01:04;11.40;;;5.20;;
6928;SDS011;3504;52.616;13.238;2023-02-03T00:06:05;10.07;;;5.17;;
6928;SDS011;3504;52.616;13.238;2023-02-03T00:11:06;17.30;;;6.20;;
6928;SDS011;3504;52.616;13.238;2023-02-03T00:16:07;13.93;;;5.93;;
6928;SDS011;3504;52.616;13.238;2023-02-03T00:21:07;9.67;;;4.93;;
6928;SDS011;3504;52.616;13.238;2023-02-03T00:26:09;10.70;;;5.70;;
6928;SDS011;3504;52.616;13.238;2023-02-03T00:31:15;16.33;;;5.30;;
6928;SDS011;3504;52.616;13.238;2023-02-03T00:36:19;14.67;;;4.97;;
6928;SDS011;3504;52.616;13.238;2023-02-03T00:41:20;15.43;;;5.27;;
6928;SDS011;3504;52.616;13.238;2023-02-03T00:46:22;12.30;;;5.10;;
6928;SDS011;3504;52.616;13.238;2023-02-03T00:51:22;12.30;;;5.17;;
6928;SDS011;3504;52.616;13.238;2023-02-03T00:56:23;13.17;;;5.23;;
6928;SDS011;3504;52.616;13.238;2023-02-03T01:01:23;13.37;;;5.10;;
6928;SDS011;3504;52.616;13.238;2023-02-03T01:06:24;12.20;;;6.13;;
6928;SDS011;3504;52.616;13.238;2023-02-03T01:11:27;15.10;;;5.53;;
6928;SDS011;3504;52.616;13.238;2023-02-03T01:16:28;11.70;;;6.13;;
6928;SDS011;3504;52.616;13.238;2023-02-03T01:21:30;18.70;;;6.13;;
6928;SDS011;3504;52.616;13.238;2023-02-03T01:26:31;15.00;;;6.70;;
6928;SDS011;3504;52.616;13.238;2023-02-03T01:31:32;19.80;;;6.70;;
6928;SDS011;3504;52.616;13.238;2023-02-03T01:36:36;16.80;;;5.93;;
6928;SDS011;3504;52.616;13.238;2023-02-03T01:41:37;11.17;;;5.97;;
6928;SDS011;3504;52.616;13.238;2023-02-03T01:46:41;12.70;;;6.17;;
6928;SDS011;3504;52.616;13.238;2023-02-03T01:51:47;13.47;;;6.37;;
6928;SDS011;3504;52.616;13.238;2023-02-03T01:56:53;12.33;;;5.93;;
6928;SDS011;3504;52.616;13.238;2023-02-03T02:02:00;12.40;;;6.20;;
6928;SDS011;3504;52.616;13.238;2023-02-03T02:07:03;11.73;;;5.80;;
6928;SDS011;3504;52.616;13.238;2023-02-03T02:12:05;14.00;;;6.43;;
6928;SDS011;3504;52.616;13.238;2023-02-03T02:17:11;9.90;;;5.93;;
6928;SDS011;3504;52.616;13.238;2023-02-03T02:27:49;11.20;;;5.43;;
6928;SDS011;3504;52.616;13.238;2023-02-03T02:43:59;7.97;;;4.50;;
6928;SDS011;3504;52.616;13.238;2023-02-03T02:49:18;8.03;;;4.83;;
6928;SDS011;3504;52.616;13.238;2023-02-03T02:54:28;6.43;;;4.00;;
6928;SDS011;3504;52.616;13.238;2023-02-03T02:59:31;6.47;;;4.13;;
6928;SDS011;3504;52.616;13.238;2023-02-03T03:04:32;6.03;;;4.43;;
6928;SDS011;3504;52.616;13.238;2023-02-03T03:09:38;8.87;;;4.70;;
6928;SDS011;3504;52.616;13.238;2023-02-03T03:14:44;6.57;;;4.27;;
6928;SDS011;3504;52.616;13.238;2023-02-03T03:19:51;5.83;;;4.20;;
6928;SDS011;3504;52.616;13.238;2023-02-03T03:25:02;5.83;;;4.10;;
6928;SDS011;3504;52.616;13.238;2023-02-03T03:30:11;5.27;;;4.20;;
6928;SDS011;3504;52.616;13.238;2023-02-03T03:35:17;4.93;;;4.30;;
6928;SDS011;3504;52.616;13.238;2023-02-03T03:40:23;5.17;;;3.87;;
6928;SDS011;3504;52.616;13.238;2023-02-03T03:45:34;5.87;;;3.83;;
6928;SDS011;3504;52.616;13.238;2023-02-03T03:50:44;5.47;;;3.57;;
6928;SDS011;3504;52.616;13.238;2023-02-03T03:55:50;5.13;;;3.60;;
6928;SDS011;3504;52.616;13.238;2023-02-03T04:00:53;5.23;;;3.40;;
6928;SDS011;3504;52.616;13.238;2023-02-03T04:05:57;4.40;;;4.00;;
6928;SDS011;3504;52.616;13.238;2023-02-03T04:10:58;6.83;;;4.50;;
6928;SDS011;3504;52.616;13.238;2023-02-03T04:15:58;4.90;;;4.33;;
6928;SDS011;3504;52.616;13.238;2023-02-03T04:20:59;5.30;;;4.30;;
6928;SDS011;3504;52.616;13.238;2023-02-03T04:25:59;7.90;;;5.10;;
6928;SDS011;3504;52.616;13.238;2023-02-03T04:31:00;10.23;;;6.73;;
6928;SDS011;3504;52.616;13.238;2023-02-03T04:36:01;12.17;;;8.33;;
6928;SDS011;3504;52.616;13.238;2023-02-03T04:41:01;13.03;;;8.40;;
6928;SDS011;3504;52.616;13.238;2023-02-03T04:46:02;13.47;;;9.73;;
6928;SDS011;3504;52.616;13.238;2023-02-03T04:51:06;13.87;;;10.27;;
6928;SDS011;3504;52.616;13.238;2023-02-03T04:56:07;16.27;;;11.00;;
6928;SDS011;3504;52.616;13.238;2023-02-03T05:01:08;19.40;;;11.80;;
6928;SDS011;3504;52.616;13.238;2023-02-03T05:06:09;24.67;;;14.33;;
6928;SDS011;3504;52.616;13.238;2023-02-03T05:11:09;27.43;;;17.00;;
6928;SDS011;3504;52.616;13.238;2023-02-03T05:16:10;31.03;;;17.37;;
6928;SDS011;3504;52.616;13.238;2023-02-03T05:21:10;39.47;;;19.33;;
6928;SDS011;3504;52.616;13.238;2023-02-03T05:26:11;38.07;;;20.67;;
6928;SDS011;3504;52.616;13.238;2023-02-03T05:31:11;40.03;;;21.47;;
6928;SDS011;3504;52.616;13.238;2023-02-03T05:36:12;46.53;;;23.87;;
6928;SDS011;3504;52.616;13.238;2023-02-03T05:41:12;46.67;;;23.97;;
6928;SDS011;3504;52.616;13.238;2023-02-03T05:46:32;53.63;;;24.80;;
6928;SDS011;3504;52.616;13.238;2023-02-03T05:51:32;48.77;;;25.47;;
6928;SDS011;3504;52.616;13.238;2023-02-03T05:56:33;53.17;;;25.67;;
6928;SDS011;3504;52.616;13.238;2023-02-03T06:01:34;55.97;;;28.20;;
6928;SDS011;3504;52.616;13.238;2023-02-03T06:06:35;56.87;;;27.70;;
6928;SDS011;3504;52.616;13.238;2023-02-03T06:11:35;56.27;;;27.73;;
6928;SDS011;3504;52.616;13.238;2023-02-03T06:16:36;58.00;;;28.83;;
6928;SDS011;3504;52.616;13.238;2023-02-03T06:21:36;52.40;;;27.60;;
6928;SDS011;3504;52.616;13.238;2023-02-03T06:26:37;56.47;;;28.10;;
6928;SDS011;3504;52.616;13.238;2023-02-03T06:31:37;60.77;;;28.87;;
6928;SDS011;3504;52.616;13.238;2023-02-03T06:36:38;57.67;;;27.27;;
6928;SDS011;3504;52.616;13.238;2023-02-03T06:41:38;58.30;;;26.13;;
6928;SDS011;3504;52.616;13.238;2023-02-03T06:46:39;48.33;;;25.93;;
6928;SDS011;3504;52.616;13.238;2023-02-03T06:51:39;46.90;;;25.77;;
6928;SDS011;3504;52.616;13.238;2023-02-03T06:56:40;48.30;;;25.63;;
6928;SDS011;3504;52.616;13.238;2023-02-03T07:01:41;43.20;;;24.87;;
6928;SDS011;3504;52.616;13.238;2023-02-03T07:06:41;41.53;;;23.43;;
6928;SDS011;3504;52.616;13.238;2023-02-03T07:11:42;36.80;;;21.80;;
6928;SDS011;3504;52.616;13.238;2023-02-03T07:16:42;42.93;;;22.37;;
6928;SDS011;3504;52.616;13.238;2023-02-03T07:21:43;37.90;;;20.97;;
6928;SDS011;3504;52.616;13.238;2023-02-03T07:26:43;36.83;;;20.80;;
6928;SDS011;3504;52.616;13.238;2023-02-03T07:31:44;38.30;;;20.27;;
6928;SDS011;3504;52.616;13.238;2023-02-03T07:36:44;32.80;;;20.10;;
6928;SDS011;3504;52.616;13.238;2023-02-03T07:41:45;33.27;;;20.83;;
6928;SDS011;3504;52.616;13.238;2023-02-03T07:46:45;34.23;;;20.20;;
6928;SDS011;3504;52.616;13.238;2023-02-03T07:51:46;30.57;;;18.00;;
6928;SDS011;3504;52.616;13.238;2023-02-03T07:56:46;30.20;;;17.40;;
6928;SDS011;3504;52.616;13.238;2023-02-03T08:01:47;24.33;;;16.17;;
6928;SDS011;3504;52.616;13.238;2023-02-03T08:06:47;24.37;;;15.93;;
6928;SDS011;3504;52.616;13.238;2023-02-03T08:11:49;22.60;;;14.37;;
6928;SDS011;3504;52.616;13.238;2023-02-03T08:16:49;22.07;;;14.03;;
6928;SDS011;3504;52.616;13.238;2023-02-03T08:21:49;22.33;;;14.07;;
6928;SDS011;3504;52.616;13.238;2023-02-03T08:26:50;18.77;;;12.60;;
6928;SDS011;3504;52.616;13.238;2023-02-03T08:31:52;19.70;;;13.47;;
6928;SDS011;3504;52.616;13.238;2023-02-03T08:36:53;22.87;;;13.37;;
6928;SDS011;3504;52.616;13.238;2023-02-03T08:41:54;18.60;;;12.67;;
6928;SDS011;3504;52.616;13.238;2023-02-03T08:46:55;18.37;;;12.07;;
6928;SDS011;3504;52.616;13.238;2023-02-03T08:51:55;15.83;;;11.20;;
6928;SDS011;3504;52.616;13.238;2023-02-03T08:56:57;16.73;;;10.73;;
6928;SDS011;3504;52.616;13.238;2023-02-03T09:01:58;18.57;;;13.43;;
6928;SDS011;3504;52.616;13.238;2023-02-03T09:07:00;17.43;;;10.30;;
6928;SDS011;3504;52.616;13.238;2023-02-03T09:12:04;14.60;;;9.43;;
6928;SDS011;3504;52.616;13.238;2023-02-03T09:17:06;12.20;;;8.57;;
6928;SDS011;3504;52.616;13.238;2023-02-03T09:22:07;10.90;;;7.43;;
6928;SDS011;3504;52.616;13.238;2023-02-03T09:27:07;10.03;;;6.80;;
6928;SDS011;3504;52.616;13.238;2023-02-03T09:32:08;9.83;;;6.83;;
6928;SDS011;3504;52.616;13.238;2023-02-03T09:37:09;11.17;;;6.70;;
6928;SDS011;3504;52.616;13.238;2023-02-03T09:42:32;7.23;;;6.23;;
6928;SDS011;3504;52.616;13.238;2023-02-03T09:47:43;10.17;;;6.63;;
6928;SDS011;3504;52.616;13.238;2023-02-03T09:52:44;9.43;;;5.77;;
6928;SDS011;3504;52.616;13.238;2023-02-03T09:57:49;7.57;;;5.43;;
6928;SDS011;3504;52.616;13.238;2023-02-03T10:08:20;8.77;;;5.47;;
6928;SDS011;3504;52.616;13.238;2023-02-03T10:14:12;5.87;;;4.80;;
6928;SDS011;3504;52.616;13.238;2023-02-03T10:25:02;9.07;;;4.40;;
6928;SDS011;3504;52.616;13.238;2023-02-03T10:30:31;4.83;;;3.40;;
6928;SDS011;3504;52.616;13.238;2023-02-03T10:35:51;3.57;;;1.90;;
6928;SDS011;3504;52.616;13.238;2023-02-03T10:41:22;5.60;;;1.80;;
6928;SDS011;3504;52.616;13.238;2023-02-03T10:46:27;9.80;;;1.73;;
6928;SDS011;3504;52.616;13.238;2023-02-03T10:51:47;5.50;;;2.10;;
6928;SDS011;3504;52.616;13.238;2023-02-03T10:56:50;11.43;;;2.57;;
6928;SDS011;3504;52.616;13.238;2023-02-03T11:01:51;10.10;;;2.70;;
6928;SDS011;3504;52.616;13.238;2023-02-03T11:06:55;12.27;;;3.17;;
6928;SDS011;3504;52.616;13.238;2023-02-03T11:12:04;16.33;;;3.70;;
6928;SDS011;3504;52.616;13.238;2023-02-03T11:17:16;12.80;;;3.10;;
6928;SDS011;3504;52.616;13.238;2023-02-03T11:22:28;13.30;;;3.40;;
6928;SDS011;3504;52.616;13.238;2023-02-03T11:27:32;15.33;;;3.87;;
6928;SDS011;3504;52.616;13.238;2023-02-03T11:32:34;14.73;;;3.87;;
6928;SDS011;3504;52.616;13.238;2023-02-03T11:37:38;15.63;;;4.70;;
6928;SDS011;3504;52.616;13.238;2023-02-03T11:42:41;18.93;;;4.43;;
6928;SDS011;3504;52.616;13.238;2023-02-03T11:48:01;14.80;;;4.40;;
6928;SDS011;3504;52.616;13.238;2023-02-03T11:59:05;21.80;;;4.70;;
6928;SDS011;3504;52.616;13.238;2023-02-03T12:04:38;17.37;;;4.17;;
6928;SDS011;3504;52.616;13.238;2023-02-03T12:15:52;27.60;;;6.03;;
6928;SDS011;3504;52.616;13.238;2023-02-03T12:21:15;24.40;;;5.47;;
6928;SDS011;3504;52.616;13.238;2023-02-03T12:31:54;25.90;;;6.63;;
6928;SDS011;3504;52.616;13.238;2023-02-03T12:37:27;33.47;;;6.40;;
6928;SDS011;3504;52.616;13.238;2023-02-03T12:42:50;26.10;;;6.00;;
6928;SDS011;3504;52.616;13.238;2023-02-03T12:48:00;24.27;;;6.43;;
6928;SDS011;3504;52.616;13.238;2023-02-03T12:53:21;12.67;;;2.60;;
6928;SDS011;3504;52.616;13.238;2023-02-03T12:58:36;5.53;;;1.80;;
6928;SDS011;3504;52.616;13.238;2023-02-03T13:14:52;14.60;;;3.50;;
6928;SDS011;3504;52.616;13.238;2023-02-03T13:20:20;16.70;;;3.93;;
6928;SDS011;3504;52.616;13.238;2023-02-03T13:36:42;15.97;;;4.10;;
6928;SDS011;3504;52.616;13.238;2023-02-03T13:42:26;17.30;;;3.77;;
6928;SDS011;3504;52.616;13.238;2023-02-03T13:47:29;22.67;;;4.27;;
6928;SDS011;3504;52.616;13.238;2023-02-03T13:52:33;21.80;;;5.60;;
6928;SDS011;3504;52.616;13.238;2023-02-03T13:57:43;25.60;;;5.07;;
6928;SDS011;3504;52.616;13.238;2023-02-03T14:02:47;21.83;;;4.63;;
6928;SDS011;3504;52.616;13.238;2023-02-03T14:07:53;24.27;;;5.50;;
6928;SDS011;3504;52.616;13.238;2023-02-03T14:12:54;15.83;;;4.97;;
6928;SDS011;3504;52.616;13.238;2023-02-03T14:18:00;27.60;;;6.67;;
6928;SDS011;3504;52.616;13.238;2023-02-03T14:28:15;24.73;;;5.00;;
6928;SDS011;3504;52.616;13.238;2023-02-03T14:33:31;20.47;;;6.03;;
6928;SDS011;3504;52.616;13.238;2023-02-03T14:39:01;25.67;;;6.57;;
6928;SDS011;3504;52.616;13.238;2023-02-03T14:55:36;32.00;;;6.80;;
6928;SDS011;3504;52.616;13.238;2023-02-03T15:06:47;35.03;;;7.30;;
6928;SDS011;3504;52.616;13.238;2023-02-03T15:11:50;27.97;;;6.63;;
6928;SDS011;3504;52.616;13.238;2023-02-03T15:22:16;27.30;;;6.43;;
6928;SDS011;3504;52.616;13.238;2023-02-03T15:27:22;24.37;;;5.80;;
6928;SDS011;3504;52.616;13.238;2023-02-03T15:32:30;30.93;;;7.20;;
6928;SDS011;3504;52.616;13.238;2023-02-03T15:37:38;26.60;;;5.73;;
6928;SDS011;3504;52.616;13.238;2023-02-03T15:43:01;18.07;;;5.20;;
6928;SDS011;3504;52.616;13.238;2023-02-03T15:48:38;22.53;;;5.93;;
6928;SDS011;3504;52.616;13.238;2023-02-03T15:54:00;28.27;;;6.43;;
6928;SDS011;3504;52.616;13.238;2023-02-03T15:59:02;31.17;;;5.80;;
6928;SDS011;3504;52.616;13.238;2023-02-03T16:04:07;20.27;;;5.77;;
6928;SDS011;3504;52.616;13.238;2023-02-03T16:14:33;27.17;;;6.03;;
6928;SDS011;3504;52.616;13.238;2023-02-03T16:19:35;28.50;;;5.93;;
6928;SDS011;3504;52.616;13.238;2023-02-03T16:24:41;26.10;;;6.87;;
6928;SDS011;3504;52.616;13.238;2023-02-03T16:29:42;32.33;;;6.73;;
6928;SDS011;3504;52.616;13.238;2023-02-03T16:35:01;24.57;;;6.00;;
6928;SDS011;3504;52.616;13.238;2023-02-03T16:40:21;32.90;;;7.33;;
6928;SDS011;3504;52.616;13.238;2023-02-03T16:45:41;28.23;;;6.13;;
6928;SDS011;3504;52.616;13.238;2023-02-03T16:51:02;29.70;;;6.07;;
6928;SDS011;3504;52.616;13.238;2023-02-03T16:56:10;33.30;;;6.93;;
6928;SDS011;3504;52.616;13.238;2023-02-03T17:01:11;22.47;;;6.40;;
6928;SDS011;3504;52.616;13.238;2023-02-03T17:06:12;24.70;;;6.27;;
6928;SDS011;3504;52.616;13.238;2023-02-03T17:11:15;28.80;;;7.07;;
6928;SDS011;3504;52.616;13.238;2023-02-03T17:16:19;27.07;;;6.40;;
6928;SDS011;3504;52.616;13.238;2023-02-03T17:21:25;29.50;;;6.20;;
6928;SDS011;3504;52.616;13.238;2023-02-03T17:26:27;25.33;;;5.83;;
6928;SDS011;3504;52.616;13.238;2023-02-03T17:31:28;27.17;;;7.27;;
6928;SDS011;3504;52.616;13.238;2023-02-03T17:36:29;24.57;;;6.43;;
6928;SDS011;3504;52.616;13.238;2023-02-03T17:41:30;25.40;;;5.30;;
6928;SDS011;3504;52.616;13.238;2023-02-03T17:46:30;20.17;;;5.63;;
6928;SDS011;3504;52.616;13.238;2023-02-03T17:51:31;27.63;;;5.77;;
6928;SDS011;3504;52.616;13.238;2023-02-03T17:56:32;22.77;;;6.07;;
6928;SDS011;3504;52.616;13.238;2023-02-03T18:01:34;16.33;;;5.87;;
6928;SDS011;3504;52.616;13.238;2023-02-03T18:06:35;27.10;;;6.43;;
6928;SDS011;3504;52.616;13.238;2023-02-03T18:11:35;24.87;;;6.90;;
6928;SDS011;3504;52.616;13.238;2023-02-03T18:16:36;24.50;;;5.43;;
6928;SDS011;3504;52.616;13.238;2023-02-03T18:21:37;21.27;;;5.47;;
6928;SDS011;3504;52.616;13.238;2023-02-03T18:26:44;23.57;;;5.87;;
6928;SDS011;3504;52.616;13.238;2023-02-03T18:31:50;21.93;;;5.37;;
6928;SDS011;3504;52.616;13.238;2023-02-03T18:36:50;20.77;;;5.13;;
6928;SDS011;3504;52.616;13.238;2023-02-03T18:41:51;21.57;;;4.83;;
6928;SDS011;3504;52.616;13.238;2023-02-03T18:46:52;22.60;;;4.90;;
6928;SDS011;3504;52.616;13.238;2023-02-03T18:51:53;17.17;;;4.60;;
6928;SDS011;3504;52.616;13.238;2023-02-03T18:56:54;18.63;;;4.50;;
6928;SDS011;3504;52.616;13.238;2023-02-03T19:01:57;17.80;;;4.87;;
6928;SDS011;3504;52.616;13.238;2023-02-03T19:06:58;19.37;;;4.40;;
6928;SDS011;3504;52.616;13.238;2023-02-03T19:11:58;19.10;;;4.33;;
6928;SDS011;3504;52.616;13.238;2023-02-03T19:16:59;19.47;;;4.03;;
6928;SDS011;3504;52.616;13.238;2023-02-03T19:21:59;13.73;;;3.57;;
6928;SDS011;3504;52.616;13.238;2023-02-03T19:27:00;14.47;;;3.53;;
6928;SDS011;3504;52.616;13.238;2023-02-03T19:32:00;12.37;;;3.40;;
6928;SDS011;3504;52.616;13.238;2023-02-03T19:37:01;16.40;;;3.83;;
6928;SDS011;3504;52.616;13.238;2023-02-03T19:42:02;12.83;;;3.73;;
6928;SDS011;3504;52.616;13.238;2023-02-03T19:47:04;14.37;;;3.67;;
6928;SDS011;3504;52.616;13.238;2023-02-03T19:52:04;17.30;;;4.00;;
6928;SDS011;3504;52.616;13.238;2023-02-03T19:57:07;18.77;;;3.50;;
6928;SDS011;3504;52.616;13.238;2023-02-03T20:02:08;11.73;;;3.50;;
6928;SDS011;3504;52.616;13.238;2023-02-03T20:07:10;14.70;;;4.10;;
6928;SDS011;3504;52.616;13.238;2023-02-03T20:12:12;12.87;;;3.50;;
6928;SDS011;3504;52.616;13.238;2023-02-03T20:17:12;10.30;;;3.30;;
6928;SDS011;3504;52.616;13.238;2023-02-03T20:22:13;13.73;;;3.27;;
6928;SDS011;3504;52.616;13.238;2023-02-03T20:27:13;10.20;;;3.20;;
6928;SDS011;3504;52.616;13.238;2023-02-03T20:32:14;7.87;;;2.57;;
6928;SDS011;3504;52.616;13.238;2023-02-03T20:37:14;11.10;;;2.87;;
6928;SDS011;3504;52.616;13.238;2023-02-03T20:42:16;10.50;;;2.63;;
6928;SDS011;3504;52.616;13.238;2023-02-03T20:47:16;6.80;;;2.40;;
6928;SDS011;3504;52.616;13.238;2023-02-03T20:52:21;7.70;;;2.30;;
6928;SDS011;3504;52.616;13.238;2023-02-03T20:57:22;9.67;;;2.77;;
6928;SDS011;3504;52.616;13.238;2023-02-03T21:02:22;7.23;;;2.40;;
6928;SDS011;3504;52.616;13.238;2023-02-03T21:07:50;12.80;;;2.37;;
6928;SDS011;3504;52.616;13.238;2023-02-03T21:12:51;6.40;;;2.20;;
6928;SDS011;3504;52.616;13.238;2023-02-03T21:17:51;3.47;;;1.70;;
6928;SDS011;3504;52.616;13.238;2023-02-03T21:22:52;4.90;;;2.30;;
6928;SDS011;3504;52.616;13.238;2023-02-03T21:27:54;6.93;;;3.00;;
6928;SDS011;3504;52.616;13.238;2023-02-03T21:32:57;3.17;;;1.60;;
6928;SDS011;3504;52.616;13.238;2023-02-03T21:37:59;1.97;;;1.60;;
6928;SDS011;3504;52.616;13.238;2023-02-03T21:43:01;4.10;;;1.57;;
6928;SDS011;3504;52.616;13.238;2023-02-03T21:48:18;2.23;;;1.13;;
6928;SDS011;3504;52.616;13.238;2023-02-03T21:53:32;1.93;;;1.23;;
6928;SDS011;3504;52.616;13.238;2023-02-03T21:58:34;1.30;;;1.03;;
6928;SDS011;3504;52.616;13.238;2023-02-03T22:03:36;2.00;;;1.03;;
6928;SDS011;3504;52.616;13.238;2023-02-03T22:08:40;2.10;;;1.20;;
6928;SDS011;3504;52.616;13.238;2023-02-03T22:13:42;3.13;;;1.20;;
6928;SDS011;3504;52.616;13.238;2023-02-03T22:18:44;3.37;;;1.40;;
6928;SDS011;3504;52.616;13.238;2023-02-03T22:23:46;1.60;;;1.50;;
6928;SDS011;3504;52.616;13.238;2023-02-03T22:28:47;1.63;;;1.50;;
6928;SDS011;3504;52.616;13.238;2023-02-03T22:33:47;2.63;;;1.60;;
6928;SDS011;3504;52.616;13.238;2023-02-03T22:38:48;4.20;;;1.77;;
6928;SDS011;3504;52.616;13.238;2023-02-03T22:43:48;4.40;;;2.13;;
6928;SDS011;3504;52.616;13.238;2023-02-03T22:48:49;3.67;;;2.03;;
6928;SDS011;3504;52.616;13.238;2023-02-03T22:53:49;4.33;;;1.93;;
6928;SDS011;3504;52.616;13.238;2023-02-03T22:58:50;6.23;;;2.77;;
6928;SDS011;3504;52.616;13.238;2023-02-03T23:03:50;2.03;;;1.53;;
6928;SDS011;3504;52.616;13.238;2023-02-03T23:08:51;4.40;;;1.97;;
6928;SDS011;3504;52.616;13.238;2023-02-03T23:13:51;2.30;;;1.63;;
6928;SDS011;3504;52.616;13.238;2023-02-03T23:18:52;2.67;;;1.43;;
6928;SDS011;3504;52.616;13.238;2023-02-03T23:23:52;1.70;;;1.60;;
6928;SDS011;3504;52.616;13.238;2023-02-03T23:28:53;4.23;;;1.73;;
6928;SDS011;3504;52.616;13.238;2023-02-03T23:33:53;3.50;;;1.80;;
6928;SDS011;3504;52.616;13.238;2023-02-03T23:39:13;5.70;;;2.47;;
6928;SDS011;3504;52.616;13.238;2023-02-03T23:44:13;2.40;;;1.53;;
6928;SDS011;3504;52.616;13.238;2023-02-03T23:49:14;2.43;;;1.93;;
6928;SDS011;3504;52.616;13.238;2023-02-03T23:54:15;3.90;;;2.00;;
6928;SDS011;3504;52.616;13.238;2023-02-03T23:59:15;3.20;;;1.97;;
